createdAt,value
2022-12-25T00:00:22.608Z,44.80
2022-12-25T00:04:09.840Z,43.00
2022-12-25T00:07:36.838Z,41.60
2022-12-25T00:11:06.551Z,39.70
2022-12-25T00:17:58.768Z,33.80
2022-12-25T00:21:25.876Z,35.30
2022-12-25T00:24:52.893Z,32.80
2022-12-25T00:28:19.993Z,35.40
2022-12-25T00:31:46.923Z,34.50
2022-12-25T00:35:13.996Z,38.80
2022-12-25T00:38:42.191Z,43.10
2022-12-25T00:42:24.155Z,41.00
2022-12-25T00:45:59.667Z,37.70
2022-12-25T00:49:27.016Z,32.80
2022-12-25T00:52:53.852Z,29.90
2022-12-25T00:56:20.798Z,28.00
2022-12-25T00:59:47.814Z,28.10
2022-12-25T01:03:15.356Z,28.30
2022-12-25T01:06:42.425Z,28.00
2022-12-25T01:10:24.113Z,32.00
2022-12-25T01:13:50.928Z,48.20
2022-12-25T01:17:17.940Z,47.20
2022-12-25T01:20:44.828Z,49.30
2022-12-25T01:24:12.037Z,32.50
2022-12-25T01:27:38.981Z,34.70
2022-12-25T01:31:06.880Z,26.30
2022-12-25T01:34:34.139Z,24.30
2022-12-25T01:38:01.146Z,25.60
2022-12-25T01:41:28.231Z,25.30
2022-12-25T01:45:27.838Z,26.90
2022-12-25T01:52:25.200Z,20.20
2022-12-25T01:55:55.592Z,19.70
2022-12-25T01:59:27.156Z,20.60
2022-12-25T02:02:54.456Z,20.60
2022-12-25T02:06:22.159Z,23.30
2022-12-25T02:09:49.573Z,21.80
2022-12-25T02:13:19.193Z,25.20
2022-12-25T02:16:56.700Z,22.90
2022-12-25T02:20:42.696Z,22.00
2022-12-25T02:24:27.960Z,20.60
2022-12-25T02:28:10.982Z,19.90
2022-12-25T02:31:44.003Z,17.90
2022-12-25T02:35:18.125Z,19.00
2022-12-25T02:39:00.586Z,18.00
2022-12-25T02:43:04.515Z,19.20
2022-12-25T02:46:50.951Z,18.00
2022-12-25T02:50:37.058Z,20.30
2022-12-25T02:54:26.749Z,22.80
2022-12-25T02:58:13.199Z,21.70
2022-12-25T03:02:00.274Z,23.40
2022-12-25T03:05:47.370Z,24.20
2022-12-25T03:09:36.952Z,22.60
2022-12-25T03:13:09.694Z,23.90
2022-12-25T03:16:53.099Z,24.90
2022-12-25T03:20:38.323Z,24.60
2022-12-25T03:24:23.036Z,24.00
2022-12-25T03:27:54.098Z,20.60
2022-12-25T03:31:27.947Z,22.40
2022-12-25T03:35:21.676Z,23.00
2022-12-25T03:39:26.271Z,23.10
2022-12-25T03:43:18.819Z,23.80
2022-12-25T03:47:09.515Z,24.00
2022-12-25T03:50:58.033Z,22.90
2022-12-25T03:54:49.927Z,28.10
2022-12-25T03:58:46.007Z,27.50
2022-12-25T04:02:30.872Z,23.30
2022-12-25T04:06:11.650Z,23.10
2022-12-25T04:09:56.337Z,22.50
2022-12-25T04:13:41.019Z,21.90
2022-12-25T04:17:25.642Z,22.70
2022-12-25T04:21:10.046Z,21.60
2022-12-25T04:24:54.775Z,21.00
2022-12-25T04:28:39.635Z,22.80
2022-12-25T04:32:24.493Z,21.40
2022-12-25T04:36:10.365Z,21.50
2022-12-25T04:39:37.237Z,20.30
2022-12-25T04:43:04.171Z,19.40
2022-12-25T04:46:31.175Z,21.00
2022-12-25T04:49:58.155Z,20.20
2022-12-25T04:53:25.252Z,20.00
2022-12-25T04:56:52.354Z,22.10
2022-12-25T05:00:20.977Z,21.50
2022-12-25T05:03:47.988Z,22.40
2022-12-25T05:07:15.144Z,21.80
2022-12-25T05:10:43.605Z,20.50
2022-12-25T05:14:10.447Z,20.50
2022-12-25T05:17:38.141Z,19.10
2022-12-25T05:21:05.687Z,20.50
2022-12-25T05:24:32.764Z,20.70
2022-12-25T05:27:59.919Z,19.80
2022-12-25T05:31:26.983Z,19.90
2022-12-25T05:34:54.207Z,20.50
2022-12-25T05:38:21.062Z,21.50
2022-12-25T05:41:48.105Z,20.20
2022-12-25T05:45:15.442Z,18.30
2022-12-25T05:48:42.504Z,20.70
2022-12-25T05:52:09.485Z,18.80
2022-12-25T05:55:38.856Z,17.50
2022-12-25T05:59:05.815Z,19.70
2022-12-25T06:02:32.823Z,20.30
2022-12-25T06:06:00.038Z,20.70
2022-12-25T06:09:27.067Z,22.40
2022-12-25T06:12:54.544Z,19.90
2022-12-25T06:16:21.688Z,20.30
2022-12-25T06:19:48.723Z,16.80
2022-12-25T06:23:15.606Z,19.10
2022-12-25T06:26:42.571Z,18.10
2022-12-25T06:30:11.934Z,18.20
2022-12-25T06:33:39.054Z,17.80
2022-12-25T06:37:06.136Z,16.90
2022-12-25T06:40:32.985Z,18.20
2022-12-25T06:44:02.430Z,18.70
2022-12-25T06:47:29.414Z,21.20
2022-12-25T06:50:56.551Z,20.00
2022-12-25T06:54:23.547Z,20.00
2022-12-25T06:57:50.386Z,19.90
2022-12-25T07:01:20.636Z,19.30
2022-12-25T07:04:48.752Z,17.50
2022-12-25T07:08:15.641Z,18.30
2022-12-25T07:11:42.492Z,17.20
2022-12-25T07:15:11.326Z,18.30
2022-12-25T07:18:38.175Z,17.90
2022-12-25T07:22:04.981Z,16.80
2022-12-25T07:25:37.069Z,17.40
2022-12-25T07:29:04.463Z,16.50
2022-12-25T07:32:33.913Z,17.60
2022-12-25T07:36:01.021Z,18.30
2022-12-25T07:39:27.953Z,17.90
2022-12-25T07:42:55.167Z,18.20
2022-12-25T07:46:23.505Z,18.60
2022-12-25T07:49:50.669Z,19.90
2022-12-25T07:53:17.515Z,20.70
2022-12-25T07:56:44.466Z,19.90
2022-12-25T08:00:13.612Z,20.60
2022-12-25T08:03:40.947Z,21.70
2022-12-25T08:07:08.050Z,24.80
2022-12-25T08:10:34.881Z,25.80
2022-12-25T08:14:01.791Z,27.30
2022-12-25T08:17:29.031Z,26.00
2022-12-25T08:20:55.861Z,20.90
2022-12-25T08:24:23.352Z,19.60
2022-12-25T08:27:50.201Z,19.50
2022-12-25T08:31:22.892Z,19.40
2022-12-25T08:34:50.489Z,22.40
2022-12-25T08:38:17.651Z,22.50
2022-12-25T08:41:44.456Z,21.70
2022-12-25T08:45:13.419Z,52.90
2022-12-25T08:48:42.757Z,26.40
2022-12-25T08:52:09.937Z,23.80
2022-12-25T08:55:36.842Z,23.30
2022-12-25T08:59:04.063Z,17.50
2022-12-25T09:02:32.175Z,18.50
2022-12-25T09:06:02.912Z,25.80
2022-12-25T09:09:30.541Z,25.20
2022-12-25T09:12:57.391Z,19.50
2022-12-25T09:16:25.374Z,17.70
2022-12-25T09:19:52.167Z,14.50
2022-12-25T09:23:19.005Z,14.40
2022-12-25T09:26:45.942Z,14.20
2022-12-25T09:30:14.175Z,15.60
2022-12-25T09:33:41.453Z,15.80
2022-12-25T09:37:08.383Z,15.80
2022-12-25T09:40:36.085Z,22.00
2022-12-25T09:44:07.282Z,19.30
2022-12-25T09:47:38.351Z,18.70
2022-12-25T09:51:10.046Z,14.00
2022-12-25T09:54:45.942Z,14.80
2022-12-25T09:58:14.473Z,16.30
2022-12-25T10:01:51.671Z,17.90
2022-12-25T10:05:45.493Z,17.10
2022-12-25T10:09:27.661Z,18.50
2022-12-25T10:13:03.535Z,20.10
2022-12-25T10:16:43.146Z,19.00
2022-12-25T10:20:19.595Z,15.70
2022-12-25T10:23:51.170Z,16.40
2022-12-25T10:27:21.481Z,18.10
2022-12-25T10:30:51.003Z,18.00
2022-12-25T10:34:21.195Z,16.10
2022-12-25T10:37:55.185Z,18.50
2022-12-25T10:41:48.418Z,20.40
2022-12-25T10:45:15.273Z,20.70
2022-12-25T10:48:45.757Z,18.20
2022-12-25T10:52:23.850Z,19.40
2022-12-25T10:56:02.304Z,18.30
2022-12-25T10:59:31.086Z,18.50
2022-12-25T11:02:58.943Z,19.70
2022-12-25T11:06:29.289Z,19.30
2022-12-25T11:10:04.600Z,20.10
2022-12-25T11:13:34.544Z,17.20
2022-12-25T11:17:11.427Z,18.00
2022-12-25T11:20:45.407Z,19.40
2022-12-25T11:24:22.287Z,19.10
2022-12-25T11:28:00.700Z,23.60
2022-12-25T11:31:37.345Z,19.90
2022-12-25T11:35:11.579Z,21.30
2022-12-25T11:38:38.408Z,20.10
2022-12-25T11:42:14.486Z,22.40
2022-12-25T11:45:47.943Z,22.40
2022-12-25T11:49:19.217Z,23.20
2022-12-25T11:52:48.625Z,22.90
2022-12-25T11:56:18.398Z,23.60
2022-12-25T11:59:53.172Z,24.70
2022-12-25T12:03:26.993Z,28.70
2022-12-25T12:06:58.233Z,28.70
2022-12-25T12:10:34.015Z,29.20
2022-12-25T12:14:08.574Z,32.60
2022-12-25T12:17:35.775Z,32.70
2022-12-25T12:21:06.447Z,35.60
2022-12-25T12:24:38.813Z,37.70
2022-12-25T12:28:06.085Z,35.10
2022-12-25T12:31:43.797Z,25.30
2022-12-25T12:35:18.294Z,25.50
2022-12-25T12:38:47.185Z,28.10
2022-12-25T12:42:21.142Z,27.50
2022-12-25T12:45:55.711Z,31.00
2022-12-25T12:49:26.402Z,31.00
2022-12-25T12:52:53.282Z,35.80
2022-12-25T12:56:21.495Z,36.80
2022-12-25T12:59:48.761Z,33.00
2022-12-25T13:03:41.128Z,33.00
2022-12-25T13:07:21.716Z,30.60
2022-12-25T13:10:52.581Z,30.50
2022-12-25T13:14:22.106Z,30.90
2022-12-25T13:17:50.192Z,28.30
2022-12-25T13:21:22.033Z,31.30
2022-12-25T13:24:58.628Z,30.10
2022-12-25T13:28:30.768Z,31.30
2022-12-25T13:31:58.430Z,29.50
2022-12-25T13:35:26.293Z,31.20
2022-12-25T13:38:56.265Z,32.80
2022-12-25T13:42:26.606Z,35.70
2022-12-25T13:45:57.796Z,35.00
2022-12-25T13:49:25.821Z,28.70
2022-12-25T13:52:53.555Z,30.80
2022-12-25T13:56:20.553Z,30.10
2022-12-25T13:59:47.927Z,30.30
2022-12-25T14:03:23.074Z,34.00
2022-12-25T14:06:51.491Z,50.60
2022-12-25T14:10:18.462Z,35.50
2022-12-25T14:13:48.171Z,27.20
2022-12-25T14:20:43.762Z,30.40
2022-12-25T14:24:16.184Z,34.00
2022-12-25T14:27:49.460Z,37.00
2022-12-25T14:31:17.490Z,41.10
2022-12-25T14:34:46.571Z,41.90
2022-12-25T14:38:21.795Z,42.80
2022-12-25T14:41:54.709Z,38.70
2022-12-25T14:45:31.686Z,29.50
2022-12-25T14:49:07.181Z,29.50
2022-12-25T14:52:40.488Z,31.10
2022-12-25T14:56:09.515Z,36.00
2022-12-25T14:59:36.401Z,40.40
2022-12-25T15:03:04.527Z,37.80
2022-12-25T15:06:33.443Z,38.70
2022-12-25T15:10:36.620Z,44.70
2022-12-25T15:13:47.537Z,37.30
2022-12-25T15:17:24.560Z,47.10
2022-12-25T15:20:53.417Z,43.90
2022-12-25T15:24:20.345Z,43.30
2022-12-25T15:27:47.247Z,44.70
2022-12-25T15:31:21.848Z,45.40
2022-12-25T15:34:50.159Z,41.10
2022-12-25T15:38:17.403Z,40.60
2022-12-25T15:42:01.908Z,47.90
2022-12-25T15:45:31.469Z,50.70
2022-12-25T15:48:58.741Z,52.90
2022-12-25T15:52:25.778Z,49.20
2022-12-25T15:55:54.182Z,52.70
2022-12-25T15:59:22.412Z,41.10
2022-12-25T16:02:50.341Z,55.00
2022-12-25T16:06:19.543Z,44.30
2022-12-25T16:09:47.155Z,50.50
2022-12-25T16:13:14.301Z,43.60
2022-12-25T16:16:41.993Z,44.00
2022-12-25T16:20:11.012Z,54.00
2022-12-25T16:23:38.021Z,47.20
2022-12-25T16:27:05.655Z,45.90
2022-12-25T16:30:32.938Z,46.00
2022-12-25T16:33:59.840Z,47.40
2022-12-25T16:37:27.640Z,47.40
2022-12-25T16:40:58.613Z,55.60
2022-12-25T16:44:25.841Z,49.10
2022-12-25T16:47:52.780Z,55.30
2022-12-25T16:51:21.718Z,53.60
2022-12-25T16:54:49.425Z,49.50
2022-12-25T16:58:16.316Z,53.60
2022-12-25T17:01:43.937Z,51.50
2022-12-25T17:05:12.344Z,53.90
2022-12-25T17:08:39.334Z,49.90
2022-12-25T17:12:07.119Z,55.90
2022-12-25T17:15:33.928Z,58.80
2022-12-25T17:19:04.130Z,58.00
2022-12-25T17:22:31.208Z,53.10
2022-12-25T17:26:00.917Z,59.60
2022-12-25T17:29:28.036Z,62.40
2022-12-25T17:32:55.299Z,59.50
2022-12-25T17:36:24.385Z,60.90
2022-12-25T17:39:51.362Z,67.10
2022-12-25T17:43:20.978Z,65.30
2022-12-25T17:46:48.528Z,64.80
2022-12-25T17:50:15.651Z,78.00
2022-12-25T17:53:44.521Z,79.50
2022-12-25T17:57:11.550Z,68.00
2022-12-25T18:00:38.737Z,65.70
2022-12-25T18:04:06.758Z,65.90
2022-12-25T18:07:33.770Z,63.40
2022-12-25T18:11:05.177Z,60.20
2022-12-25T18:14:32.175Z,60.00
2022-12-25T18:17:59.278Z,62.00
2022-12-25T18:21:26.847Z,55.60
2022-12-25T18:24:53.782Z,62.10
2022-12-25T18:28:21.138Z,60.40
2022-12-25T18:31:48.652Z,62.10
2022-12-25T18:35:15.835Z,65.80
2022-12-25T18:38:43.184Z,65.80
2022-12-25T18:42:42.320Z,63.70
2022-12-25T18:46:10.151Z,61.10
2022-12-25T18:49:37.490Z,65.50
2022-12-25T18:53:05.641Z,65.60
2022-12-25T18:56:32.565Z,68.60
2022-12-25T18:59:59.819Z,63.40
2022-12-25T19:03:26.944Z,60.90
2022-12-25T19:06:54.585Z,60.80
2022-12-25T19:10:21.641Z,61.10
2022-12-25T19:13:49.132Z,60.20
2022-12-25T19:17:16.557Z,60.70
2022-12-25T19:20:43.767Z,60.50
2022-12-25T19:24:10.951Z,57.90
2022-12-25T19:27:37.892Z,54.40
2022-12-25T19:31:07.548Z,58.50
2022-12-25T19:38:00.177Z,55.10
2022-12-25T19:41:28.566Z,55.10
2022-12-25T19:44:55.917Z,53.60
2022-12-25T19:48:22.784Z,52.20
2022-12-25T19:51:49.895Z,51.70
2022-12-25T19:55:20.155Z,50.50
2022-12-25T19:58:47.377Z,48.50
2022-12-25T20:02:14.373Z,50.10
2022-12-25T20:05:45.248Z,49.40
2022-12-25T20:09:17.917Z,48.10
2022-12-25T20:12:47.648Z,51.10
2022-12-25T20:16:15.159Z,51.30
2022-12-25T20:19:42.207Z,46.00
2022-12-25T20:23:09.573Z,49.60
2022-12-25T20:26:36.778Z,48.60
2022-12-25T20:30:03.660Z,48.50
2022-12-25T20:33:30.835Z,47.20
2022-12-25T20:36:57.698Z,48.20
2022-12-25T20:40:24.712Z,48.40
2022-12-25T20:43:52.151Z,44.40
2022-12-25T20:47:19.468Z,45.10
2022-12-25T20:50:46.544Z,45.50
2022-12-25T20:54:14.906Z,43.30
2022-12-25T20:57:41.795Z,46.30
2022-12-25T21:01:10.755Z,45.70
2022-12-25T21:04:37.803Z,46.70
2022-12-25T21:08:04.625Z,46.00
2022-12-25T21:11:31.740Z,44.40
2022-12-25T21:14:58.733Z,45.50
2022-12-25T21:18:27.881Z,45.80
2022-12-25T21:21:54.933Z,45.70
2022-12-25T21:25:21.817Z,45.70
2022-12-25T21:28:49.866Z,46.20
2022-12-25T21:32:34.695Z,46.40
2022-12-25T21:36:09.074Z,46.00
2022-12-25T21:39:36.077Z,45.20
2022-12-25T21:43:03.085Z,45.60
2022-12-25T21:46:30.451Z,47.40
2022-12-25T21:50:15.533Z,45.30
2022-12-25T21:53:42.431Z,43.10
2022-12-25T21:57:10.206Z,47.00
2022-12-25T22:00:37.285Z,46.40
2022-12-25T22:04:07.161Z,46.40
2022-12-25T22:07:34.184Z,47.90
2022-12-25T22:11:03.866Z,48.60
2022-12-25T22:18:38.106Z,43.20
2022-12-25T22:22:05.108Z,45.40
2022-12-25T22:25:32.217Z,45.20
2022-12-25T22:28:59.281Z,43.80
2022-12-25T22:32:26.299Z,40.30
2022-12-25T22:36:01.437Z,39.80
2022-12-25T22:39:29.231Z,38.00
2022-12-25T22:42:57.736Z,38.00
2022-12-25T22:46:24.867Z,36.00
2022-12-25T22:49:51.958Z,37.90
2022-12-25T22:53:18.990Z,37.90
2022-12-25T22:56:48.076Z,34.50
2022-12-25T23:00:16.265Z,35.80
2022-12-25T23:03:43.181Z,33.20
2022-12-25T23:07:10.984Z,33.50
2022-12-25T23:10:37.965Z,34.00
2022-12-25T23:14:22.855Z,32.30
2022-12-25T23:18:07.785Z,31.60
2022-12-25T23:21:52.393Z,30.90
2022-12-25T23:25:36.867Z,30.60
2022-12-25T23:29:21.822Z,31.10
2022-12-25T23:32:48.857Z,30.90
2022-12-25T23:36:15.871Z,29.80
2022-12-25T23:39:42.786Z,29.20
2022-12-25T23:43:09.953Z,30.50
2022-12-25T23:46:37.195Z,29.30
2022-12-25T23:50:04.549Z,31.20
2022-12-25T23:53:31.658Z,27.60
2022-12-25T23:56:59.357Z,27.90
